Aérodrome :
LOGIN :

S'inscrire | Disclaimer

   EN    FR    IT 

 










Légende :    VFR   VFR Marginal   IFR   IFR Intensif   IFR Très Intensif
Visi : 
Plafond : 
>= 8 km
>= 3000ft
5 à 8 km
1000 à 3000 ft
1500m à 5 km
500 à 1000 ft
800 à 1500m
200 à 500 ft
< 800m
< 200 ft
Symboles :   Orages  Brouillard  Fortes neiges  Fortes précipitations  Vent > 20 kt
SIGMETs :   Divers  Orages  Givrage  Turbulence  Onde Orograph.  Cendres Volcan.







- Altitude de l'aérodrome : 0 ft


ETEB - Ansbach Army Heliport

DERNIER METAR :
  • 260856Z AUTO 27020G27KT 9999 SCT034 SCT043 BKN055 BKN190 11/03 A3006 RMK AO2 SLP191 T01110031 $

METARs EXPIRÉS :
  • 260755Z AUTO 27010G18KT 9999 SCT030 BKN070 BKN085 10/04 A3006 RMK AO2A SLP179 WND DATA ESTMD ALSTG/SLP ESTMD T01030039
  • 260655Z AUTO 27009G16KT 9999 FEW022 SCT085 10/05 A3006 RMK AO2A SLP179 WND DATA ESTMD ALSTG/SLP ESTMD T00970051

TAF AMD TAF ETEB
Valide du 26 à 07h jusqu'au 27 à 11h UTC


260724Z 2607/2711 27012G20KT 9999 BKN050 QNH3000INS
BECMG 2610/2611 28015G25KT 9999 SCT050 QNH3004INS
BECMG 2617/2618 27012KT 9999 FEW050 QNH3006INS
BECMG 2623/2624 VRB06KT 8000 BR FEW090 QNH3009INS
BECMG 2706/2707 12009KT 9999 NSW FEW130 QNH2999INS TX16/2615Z TN04/2703Z
Pas de NOTAMs connus pour ce terrain.



MET'MAP, la Météo Aéronautique d'un coup d'oeil ! - Copyright ORBIFLY Décembre 2007 - Disclaimer

ORBIFLY MET'MAP TEAM :

Programmation & Développement : Alexandra Zaïnal
Conception & Développement : Baudouin d'Aumeries
Co-Programmation & Développement : Marc-Olivier Méhu
Soutien technique & logistique : Manuel Goepfert

Contact : metmap@orbifly.com




SOURCES & CREDITS :

   NOAA